Portage Des Sioux, MO

6:01 AM CDT on May 26, 2015 (GMT -0500)
Polestar Boating Center | | Change Station
CLOSE
Current Station
Personal Weather Station
Location: St. Charles, MO
Elevation: 449 ft
Nearby Weather Stations

Elev 449 ft 38.93 °N, 90.47 °W | Updated 5 seconds ago

Light Rain
Light Rain
71.2 °F
Feels Like 71.2 °F
N
1.0
Wind Variable Wind from SE
Gusts 6.0 mph

Today
High -- | Low -- °F
--% Chance of Precip.
Yesterday
High -- | Low -- °F
Precip. -- in
5:41 AM 8:16 PM
First Quarter, 57% visible
Pressure 29.81 in
Visibility 9.0 miles
Clouds Few 1500 ft
Few 9500 ft
Mostly Cloudy 11000 ft
Dew Point 69 °F
Humidity 92%
Rainfall 0.00 in
Snow Depth Not available.
UV 0 out of 12
Pollen 7.30 out of 12
Air Quality Not available.
Flu Activity Sporadic
METAR KSET 261054Z AUTO 13011KT 9SM -RA FEW015 FEW095 BKN110 22/20 A2983 RMK AO2 RAB52 SLP095 P0000 T02220200 TSNO

More Conditions Fewer Conditions

Pressure 29.81 in
Visibility 9.0 miles
Clouds Few 1500 ft
Few 9500 ft
Mostly Cloudy 11000 ft
Dew Point 69 °F
Humidity 92%
Rainfall 0.00 in
Snow Depth Not available.
UV 0 out of 12
Pollen 7.30 out of 12
Air Quality Not available.
Flu Activity Sporadic
METAR KSET 261054Z AUTO 13011KT 9SM -RA FEW015 FEW095 BKN110 22/20 A2983 RMK AO2 RAB52 SLP095 P0000 T02220200 TSNO

More Conditions Fewer Conditions

10-Day Weather Forecast

Almanac

Astronomy

May. 26, 2015 Rise Set
Actual Time
Civil Twilight
Nautical Twilight
Astronomical Twilight
Moon
Length of Visible Light
Length of Day
Tomorrow will be .
, % of the Moon is Illuminated

Today's Extremes

State Highs State Lows

Community

WunderPhotos

Upload Photos

1,824,305 photos uploaded!

WunderBlogs® & News

Nearby

Air Quality

  Air Quality AQ Index Pollutant
Not available.

Snow Depth

Station Depth Elevation

Earthquake Activity

City Distance Mag. Time & Date
Minimum magnitude displayed is 2.5.

Coastal Water Temperatures

Place Temperature

Stations

Nearby Weather Stations

Station Location Temp. Windchill Dew Point Humidity Wind Precip. Elev Updated Type